Time;durP1;ratioP1;P1;durP2;ratioP2;P2;SDS_P1;SDS_P2;PMS_P1;PMS_P2;Temp;Humidity;BMP_temperature;BMP_pressure;BME280_temperature;BME280_humidity;BME280_pressure;Samples;Min_cycle;Max_cycle;Signal;HPM_P1;HPM_P2
2023/02/13 00:00:22;;;;;;;0.00;0.00;;;;;;;8.84;61.84;102522.50;7362412;19;20010;-61
2023/02/13 00:02:47;;;;;;;0.10;0.10;;;;;;;8.52;61.48;102467.38;7357958;19;20010;-61
2023/02/13 00:05:13;;;;;;;0.00;0.00;;;;;;;8.93;62.03;102537.41;7362982;19;20013;-60
2023/02/13 00:07:38;;;;;;;0.10;0.10;;;;;;;8.93;61.88;102534.81;7360141;19;20011;-61
2023/02/13 00:10:04;;;;;;;0.00;0.00;;;;;;;8.93;61.93;102533.94;7358185;19;20006;-61
2023/02/13 00:12:30;;;;;;;0.00;0.00;;;;;;;8.94;62.11;102548.69;7352996;19;20013;-62
2023/02/13 00:14:55;;;;;;;0.00;0.00;;;;;;;8.78;61.20;102500.72;7333477;19;20867;-60
2023/02/13 00:17:21;;;;;;;0.00;0.00;;;;;;;8.94;61.89;102541.75;7348003;19;20784;-61
2023/02/13 00:19:46;;;;;;;0.00;0.00;;;;;;;8.90;62.02;102532.13;7355309;19;21249;-61
2023/02/13 00:22:12;;;;;;;0.00;0.00;;;;;;;8.82;62.09;102523.38;7353928;19;20026;-62
2023/02/13 00:24:37;;;;;;;0.08;0.08;;;;;;;8.93;62.59;102540.00;7357335;19;20018;-60
2023/02/13 00:27:03;;;;;;;0.00;0.00;;;;;;;8.88;62.69;102526.03;7355483;19;20380;-62
2023/02/13 00:29:28;;;;;;;0.00;0.00;;;;;;;8.81;62.55;102517.25;7356061;19;20034;-61
2023/02/13 00:31:53;;;;;;;0.10;0.10;;;;;;;8.92;62.40;102534.75;7354217;19;20006;-60
2023/02/13 00:34:19;;;;;;;0.03;0.03;;;;;;;8.89;62.70;102517.38;7340922;19;20488;-61
2023/02/13 00:36:44;;;;;;;0.10;0.10;;;;;;;8.75;62.99;102495.47;7337223;19;20640;-61
2023/02/13 00:39:11;;;;;;;0.00;0.00;;;;;;;8.91;63.00;102520.84;7345543;19;20133;-61
2023/02/13 00:41:37;;;;;;;0.10;0.10;;;;;;;8.79;62.78;102502.47;7347274;19;20003;-61
2023/02/13 00:44:02;;;;;;;0.00;0.00;;;;;;;8.89;62.90;102519.97;7354459;19;20025;-61
2023/02/13 00:46:28;;;;;;;0.10;0.10;;;;;;;8.72;63.05;102490.22;7348933;19;20070;-61
2023/02/13 00:48:53;;;;;;;0.00;0.00;;;;;;;8.43;63.02;102445.56;7354411;19;20035;-59
2023/02/13 00:51:19;;;;;;;0.03;0.03;;;;;;;8.84;63.17;102516.44;7355997;19;20014;-61
2023/02/13 00:53:44;;;;;;;0.10;0.10;;;;;;;8.84;63.27;102521.63;7355100;19;20003;-61
2023/02/13 00:56:10;;;;;;;0.05;0.05;;;;;;;8.83;63.07;102520.78;7353002;19;20011;-61
2023/02/13 00:58:35;;;;;;;0.00;0.00;;;;;;;8.82;63.17;102519.03;7360459;19;20018;-61
2023/02/13 01:01:01;;;;;;;0.00;0.00;;;;;;;8.79;62.99;102518.09;7365360;19;20637;-62
2023/02/13 01:03:26;;;;;;;0.10;0.10;;;;;;;8.81;63.40;102521.59;7364500;19;20006;-61
2023/02/13 01:05:52;;;;;;;0.10;0.10;;;;;;;8.70;63.54;102505.81;7362870;19;20007;-60
2023/02/13 01:08:19;;;;;;;0.10;0.10;;;;;;;8.78;63.52;102517.22;7364290;19;20025;-61
2023/02/13 01:10:46;;;;;;;0.00;0.00;;;;;;;8.62;63.78;102488.31;7366492;19;20010;-61
2023/02/13 01:13:13;;;;;;;0.00;0.00;;;;;;;8.76;63.07;102518.03;7366199;19;20082;-61
2023/02/13 01:15:39;;;;;;;0.00;0.00;;;;;;;8.75;63.30;102521.50;7359979;19;20011;-61
2023/02/13 01:18:05;;;;;;;0.10;0.10;;;;;;;8.69;63.27;102511.88;7363117;19;20066;-61
2023/02/13 01:20:30;;;;;;;0.00;0.00;;;;;;;8.67;63.38;102508.41;7365101;19;20086;-62
2023/02/13 01:22:56;;;;;;;0.03;0.03;;;;;;;8.56;63.70;102495.19;7364594;19;20013;-62
2023/02/13 01:25:22;;;;;;;0.10;0.10;;;;;;;8.68;63.17;102515.34;7364562;19;20027;-61
2023/02/13 01:27:48;;;;;;;0.00;0.00;;;;;;;8.63;63.85;102505.72;7362492;19;20011;-61
2023/02/13 01:30:15;;;;;;;0.00;0.00;;;;;;;8.65;63.48;102511.81;7365984;19;20034;-62
2023/02/13 01:32:42;;;;;;;0.10;0.10;;;;;;;8.64;63.86;102504.88;7362180;19;20019;-61
2023/02/13 01:35:09;;;;;;;0.00;0.00;;;;;;;8.56;63.50;102502.13;7362231;19;20612;-61
2023/02/13 01:37:35;;;;;;;0.00;0.00;;;;;;;8.61;63.65;102502.19;7364944;19;20525;-61
2023/02/13 01:40:00;;;;;;;0.10;0.10;;;;;;;8.43;63.95;102482.88;7362792;19;20717;-61
2023/02/13 01:42:32;;;;;;;0.00;0.00;;;;;;;8.47;64.06;102474.25;7361752;19;20010;-61
2023/02/13 01:45:01;;;;;;;0.10;0.10;;;;;;;8.50;63.96;102492.50;7364425;19;20116;-60
2023/02/13 01:47:32;;;;;;;0.00;0.00;;;;;;;8.53;64.19;102495.16;7362248;19;20006;-61
2023/02/13 01:50:08;;;;;;;0.00;0.00;;;;;;;8.53;64.05;102499.50;7360381;19;20074;-61
2023/02/13 01:52:37;;;;;;;0.00;0.00;;;;;;;8.49;64.26;102501.19;7364167;19;20074;-61
2023/02/13 01:55:04;;;;;;;0.00;0.00;;;;;;;8.45;64.19;102486.34;7362998;19;20010;-61
2023/02/13 01:57:31;;;;;;;;;;;;;;;8.49;62.43;102495.09;7359077;19;20011;-61
2023/02/13 02:00:08;;;;;;;0.00;0.00;;;;;;;8.46;63.53;102497.66;7359806;19;19935;-62
2023/02/13 02:02:38;;;;;;;0.00;0.00;;;;;;;8.39;64.03;102488.00;7361614;19;20745;-61
2023/02/13 02:05:05;;;;;;;0.10;0.10;;;;;;;8.38;63.90;102483.66;7359934;19;19998;-62
2023/02/13 02:07:32;;;;;;;0.00;0.00;;;;;;;8.23;63.68;102468.66;7359988;19;20082;-61
2023/02/13 02:10:08;;;;;;;0.00;0.00;;;;;;;8.32;63.29;102484.41;7361790;19;20433;-61
2023/02/13 02:12:40;;;;;;;0.10;0.10;;;;;;;8.23;63.89;102489.47;7361298;19;20006;-62
2023/02/13 02:15:06;;;;;;;0.10;0.10;;;;;;;8.22;64.26;102488.59;7361091;19;20031;-62
2023/02/13 02:17:32;;;;;;;0.05;0.05;;;;;;;8.19;64.50;102485.06;7361649;19;20014;-61
2023/02/13 02:20:06;;;;;;;0.00;0.00;;;;;;;8.19;64.02;102490.25;7362276;19;20018;-59
2023/02/13 02:23:08;;;;;;;0.10;0.10;;;;;;;8.12;63.38;102480.63;7364448;19;20014;-61
2023/02/13 02:25:52;;;;;;;0.05;0.05;;;;;;;8.15;63.39;102496.25;7261554;19;2004202;-61
2023/02/13 02:28:18;;;;;;;0.10;0.10;;;;;;;8.09;64.17;102490.97;7363124;19;20014;-61
2023/02/13 02:30:43;;;;;;;0.00;0.00;;;;;;;8.06;64.11;102487.47;7359445;19;20658;-62
2023/02/13 02:33:33;;;;;;;0.00;0.00;;;;;;;8.04;63.24;102473.56;7361295;19;20619;-60
2023/02/13 02:36:22;;;;;;;0.00;0.00;;;;;;;8.00;63.31;102476.94;7359082;19;20013;-62
2023/02/13 02:39:24;;;;;;;0.00;0.00;;;;;;;7.81;63.42;102448.91;7361843;19;20100;-61
2023/02/13 02:42:25;;;;;;;0.00;0.00;;;;;;;7.85;63.29;102458.47;7257063;19;2004643;-60
2023/02/13 02:45:19;;;;;;;0.00;0.00;;;;;;;7.82;63.55;102461.06;7254514;19;2004186;-62
2023/02/13 02:51:02;;;;;;;0.00;0.00;;;;;;;7.72;63.72;102465.22;7260259;19;2004393;-61
2023/02/13 02:55:05;;;;;;;0.10;0.10;;;;;;;7.72;63.22;102461.75;7358830;19;20458;-61
2023/02/13 02:56:52;;;;;;;0.00;0.00;;;;;;;7.63;63.98;102464.19;7155537;19;2004408;-62
2023/02/13 03:07:45;;;;;;;0.00;0.00;;;;;;;7.30;63.56;102434.16;7357692;19;20022;-61
2023/02/13 03:13:37;;;;;;;0.00;0.00;;;;;;;7.27;62.92;102434.06;7256647;19;2004351;-60
2023/02/13 03:22:19;;;;;;;0.00;0.00;;;;;;;7.14;63.13;102432.06;7353906;19;20052;-61
2023/02/13 03:25:06;;;;;;;0.00;0.00;;;;;;;7.17;63.31;102437.34;7260338;19;2004463;-61
2023/02/13 03:30:40;;;;;;;0.00;0.00;;;;;;;7.08;63.51;102444.97;7256156;19;2004423;-61
2023/02/13 03:33:06;;;;;;;0.00;0.00;;;;;;;7.05;63.75;102438.00;7356536;19;20018;-61
2023/02/13 03:38:37;;;;;;;0.00;0.00;;;;;;;6.99;63.53;102443.94;7360197;19;20079;-61
2023/02/13 03:41:34;;;;;;;0.00;0.00;;;;;;;6.64;62.67;102390.41;7360254;19;20014;-62
2023/02/13 03:44:18;;;;;;;0.00;0.00;;;;;;;6.94;63.04;102448.13;7256186;19;2004241;-62
2023/02/13 03:46:47;;;;;;;0.00;0.00;;;;;;;6.90;63.54;102448.06;7357096;19;20021;-62
2023/02/13 03:52:17;;;;;;;0.00;0.00;;;;;;;6.84;63.22;102446.19;7257135;19;2004485;-59
2023/02/13 04:00:20;;;;;;;0.03;0.03;;;;;;;6.57;63.76;102417.09;7361538;19;20013;-61
2023/02/13 04:03:08;;;;;;;0.03;0.03;;;;;;;6.71;63.84;102439.03;7353240;19;20644;-62
2023/02/13 04:05:50;;;;;;;0.08;0.08;;;;;;;6.69;64.09;102438.09;7256854;19;2006171;-60
2023/02/13 04:08:16;;;;;;;0.00;0.00;;;;;;;6.69;64.20;102441.59;7358612;19;20013;-61
2023/02/13 04:11:02;;;;;;;0.10;0.10;;;;;;;6.64;64.49;102429.34;7358149;19;20010;-61
2023/02/13 04:13:41;;;;;;;0.05;0.05;;;;;;;6.68;63.83;102421.66;7258313;19;2004284;-61
2023/02/13 04:16:35;;;;;;;0.05;0.05;;;;;;;6.70;63.72;102427.75;7349884;19;20050;-60
2023/02/13 04:19:02;;;;;;;0.10;0.10;;;;;;;6.65;64.18;102415.53;7257526;19;2004582;-61
2023/02/13 04:21:32;;;;;;;0.10;0.10;;;;;;;6.69;64.13;102420.81;7332341;19;20331;-61
2023/02/13 04:23:57;;;;;;;0.00;0.00;;;;;;;6.68;64.44;102420.78;7356190;19;20085;-61
2023/02/13 04:26:24;;;;;;;0.10;0.10;;;;;;;6.61;65.02;102403.34;7354545;19;20993;-62
2023/02/13 04:28:49;;;;;;;0.10;0.10;;;;;;;6.60;64.50;102404.19;7361502;19;20010;-62
2023/02/13 04:31:15;;;;;;;0.00;0.00;;;;;;;6.57;65.52;102397.19;7355577;19;20011;-61
2023/02/13 04:33:40;;;;;;;0.00;0.00;;;;;;;6.66;65.46;102399.09;7368941;19;20026;-62
2023/02/13 04:36:06;;;;;;;0.00;0.00;;;;;;;6.64;65.82;102398.19;7372141;19;20017;-62
2023/02/13 04:38:31;;;;;;;0.00;0.00;;;;;;;6.73;65.68;102403.56;7371064;19;20030;-61
2023/02/13 04:40:57;;;;;;;0.00;0.00;;;;;;;6.78;66.01;102399.34;7371905;19;20511;-62
2023/02/13 04:43:24;;;;;;;0.10;0.10;;;;;;;6.82;65.80;102398.56;7366624;19;20006;-61
2023/02/13 04:45:50;;;;;;;0.00;0.00;;;;;;;6.94;65.75;102403.13;7373048;19;20105;-61
2023/02/13 04:48:15;;;;;;;0.05;0.05;;;;;;;6.99;65.78;102397.19;7369269;19;21113;-61
2023/02/13 04:50:41;;;;;;;0.00;0.00;;;;;;;7.03;65.91;102398.97;7373884;19;20014;-62
2023/02/13 04:53:06;;;;;;;0.00;0.00;;;;;;;7.08;66.14;102390.41;7371816;19;20006;-61
2023/02/13 04:55:32;;;;;;;0.10;0.10;;;;;;;7.13;66.96;102397.44;7372320;19;20396;-61
2023/02/13 04:57:57;;;;;;;0.00;0.00;;;;;;;7.22;66.44;102401.94;7373753;19;20035;-62
2023/02/13 05:00:25;;;;;;;0.03;0.03;;;;;;;7.27;66.65;102402.91;7369764;19;20031;-61
2023/02/13 05:02:50;;;;;;;0.00;0.00;;;;;;;7.32;66.48;102405.56;7374861;19;20150;-61
2023/02/13 05:05:16;;;;;;;0.10;0.10;;;;;;;7.38;66.76;102403.09;7368541;19;20014;-61
2023/02/13 05:07:42;;;;;;;0.00;0.00;;;;;;;7.35;66.70;102400.41;7373303;19;20006;-61
2023/02/13 05:10:09;;;;;;;0.00;0.00;;;;;;;7.43;66.93;102409.25;7373093;19;20005;-61
2023/02/13 05:12:34;;;;;;;0.10;0.10;;;;;;;7.45;66.46;102418.84;7371489;19;20014;-61
2023/02/13 05:14:59;;;;;;;0.10;0.10;;;;;;;7.44;66.74;102411.84;7371547;19;20006;-61
2023/02/13 05:17:25;;;;;;;0.10;0.10;;;;;;;7.40;66.48;102402.28;7371727;19;20031;-61
2023/02/13 05:19:50;;;;;;;0.10;0.10;;;;;;;7.33;66.40;102387.41;7370911;19;20637;-61
2023/02/13 05:24:59;;;;;;;0.10;0.10;;;;;;;7.42;66.31;102403.16;7371117;19;20012;-61
2023/02/13 05:27:25;;;;;;;0.10;0.10;;;;;;;7.39;66.54;102397.03;7364676;19;20010;-62
2023/02/13 05:29:50;;;;;;;0.00;0.00;;;;;;;7.46;66.58;102415.38;7370496;19;20010;-62
2023/02/13 05:32:16;;;;;;;0.10;0.10;;;;;;;7.37;66.62;102394.41;7372694;19;20024;-61
2023/02/13 05:34:41;;;;;;;0.03;0.03;;;;;;;7.34;66.07;102383.94;7369526;19;20002;-62
2023/02/13 05:37:06;;;;;;;0.10;0.10;;;;;;;7.44;66.21;102401.47;7371728;19;20010;-62
2023/02/13 05:39:32;;;;;;;0.10;0.10;;;;;;;7.33;66.23;102382.22;7366677;19;20022;-62
2023/02/13 05:41:58;;;;;;;0.00;0.00;;;;;;;7.43;66.47;102389.31;7372615;19;20010;-61
2023/02/13 05:44:23;;;;;;;0.10;0.10;;;;;;;7.37;66.22;102373.63;7365134;19;20016;-61
2023/02/13 05:46:48;;;;;;;0.00;0.00;;;;;;;7.46;66.45;102389.38;7363942;19;20014;-61
2023/02/13 05:49:14;;;;;;;0.00;0.00;;;;;;;7.52;66.44;102381.69;7362419;19;20491;-61
2023/02/13 05:51:41;;;;;;;0.08;0.08;;;;;;;7.51;66.31;102384.25;7363032;19;20010;-61
2023/02/13 05:54:07;;;;;;;0.00;0.00;;;;;;;7.48;66.49;102382.47;7359801;19;20014;-61
2023/02/13 05:56:32;;;;;;;0.10;0.10;;;;;;;7.46;66.36;102373.78;7363872;19;20019;-61
2023/02/13 05:58:58;;;;;;;0.10;0.10;;;;;;;7.57;66.43;102388.69;7357968;19;20030;-61
2023/02/13 06:01:23;;;;;;;0.00;0.00;;;;;;;7.58;65.73;102386.09;7363468;19;20006;-61
2023/02/13 06:03:50;;;;;;;0.10;0.10;;;;;;;7.57;66.12;102375.69;7358479;19;20017;-61
2023/02/13 06:06:16;;;;;;;0.10;0.10;;;;;;;7.48;66.12;102366.88;7364028;19;20050;-61
2023/02/13 06:08:41;;;;;;;0.10;0.10;;;;;;;7.46;66.02;102358.19;7360641;19;21450;-62
2023/02/13 06:11:08;;;;;;;0.10;0.10;;;;;;;7.57;66.20;102381.75;7364236;19;20010;-61
2023/02/13 06:13:33;;;;;;;0.03;0.03;;;;;;;7.62;66.24;102379.25;7359786;19;20011;-60
2023/02/13 06:15:59;;;;;;;0.10;0.10;;;;;;;7.53;66.12;102359.16;7364010;19;20018;-60
2023/02/13 06:18:24;;;;;;;0.00;0.00;;;;;;;7.53;65.84;102359.16;7361257;19;20817;-61
2023/02/13 06:20:49;;;;;;;0.00;0.00;;;;;;;7.65;66.20;102374.94;7358725;19;20078;-62
2023/02/13 06:23:15;;;;;;;0.03;0.03;;;;;;;7.62;66.58;102367.13;7361033;19;20014;-61
2023/02/13 06:25:40;;;;;;;0.00;0.00;;;;;;;7.66;65.94;102366.31;7363565;19;20098;-62
2023/02/13 06:28:06;;;;;;;0.00;0.00;;;;;;;7.67;65.97;102367.19;7358758;19;20042;-62
2023/02/13 06:30:32;;;;;;;0.10;0.10;;;;;;;7.57;65.75;102354.88;7364345;19;20040;-62
2023/02/13 06:32:58;;;;;;;0.00;0.00;;;;;;;7.65;65.78;102372.34;7357999;19;20013;-62
2023/02/13 06:35:23;;;;;;;0.00;0.00;;;;;;;7.65;65.76;102368.88;7364317;19;20023;-60
2023/02/13 06:37:49;;;;;;;0.10;0.10;;;;;;;7.63;65.75;102362.78;7357351;19;20010;-61
2023/02/13 06:40:16;;;;;;;0.00;0.00;;;;;;;7.47;66.02;102328.75;7361944;19;20006;-61
2023/02/13 06:42:42;;;;;;;0.03;0.03;;;;;;;7.42;65.94;102335.59;7364094;19;20010;-62
2023/02/13 06:45:08;;;;;;;0.10;0.10;;;;;;;7.48;66.43;102334.81;7370223;19;20017;-61
2023/02/13 06:47:33;;;;;;;0.00;0.00;;;;;;;7.56;66.22;102345.34;7358278;19;20015;-61
2023/02/13 06:49:59;;;;;;;0.00;0.00;;;;;;;7.59;66.34;102350.56;7365027;19;20021;-61
2023/02/13 06:52:24;;;;;;;0.10;0.10;;;;;;;7.55;66.33;102336.66;7362620;19;20013;-61
2023/02/13 06:54:49;;;;;;;0.00;0.00;;;;;;;7.45;66.45;102326.94;7362687;19;20006;-61
2023/02/13 06:57:15;;;;;;;0.10;0.10;;;;;;;7.48;66.08;102334.81;7360949;19;20014;-60
2023/02/13 06:59:41;;;;;;;0.10;0.10;;;;;;;7.50;65.01;102343.50;7351558;19;20652;-62
2023/02/13 07:02:09;;;;;;;0.00;0.00;;;;;;;7.63;66.06;102355.84;7358979;19;20006;-61
2023/02/13 07:04:35;;;;;;;0.00;0.00;;;;;;;7.64;65.79;102356.72;7362787;19;20404;-61
2023/02/13 07:07:00;;;;;;;0.00;0.00;;;;;;;7.62;65.82;102359.31;7354483;19;20006;-62
2023/02/13 07:09:26;;;;;;;0.00;0.00;;;;;;;7.50;65.80;102323.59;7346685;19;20066;-62
2023/02/13 07:11:51;;;;;;;0.00;0.00;;;;;;;7.67;65.77;102351.59;7360870;19;20042;-61
2023/02/13 07:14:16;;;;;;;0.00;0.00;;;;;;;7.66;66.32;102355.03;7361637;19;20651;-61
2023/02/13 07:16:42;;;;;;;0.00;0.00;;;;;;;7.67;65.82;102351.59;7355799;19;20851;-60
2023/02/13 07:19:07;;;;;;;0.00;0.00;;;;;;;7.66;66.23;102345.53;7357379;19;20006;-61
2023/02/13 07:21:33;;;;;;;0.00;0.00;;;;;;;7.71;65.37;102358.59;7355762;19;20039;-61
2023/02/13 07:23:58;;;;;;;0.00;0.00;;;;;;;7.72;65.98;102360.34;7360231;19;20034;-61
2023/02/13 07:26:25;;;;;;;0.10;0.10;;;;;;;7.63;65.98;102336.78;7354960;19;20007;-61
2023/02/13 07:28:51;;;;;;;0.00;0.00;;;;;;;7.74;65.74;102350.81;7358944;19;20007;-62
2023/02/13 07:31:16;;;;;;;0.00;0.00;;;;;;;7.73;66.04;102341.28;7354294;19;20021;-61
2023/02/13 07:33:41;;;;;;;0.00;0.00;;;;;;;7.75;65.63;102335.22;7357878;19;20014;-62
2023/02/13 07:36:07;;;;;;;0.00;0.00;;;;;;;7.65;66.11;102311.66;7357530;19;20006;-62
2023/02/13 07:38:32;;;;;;;0.10;0.10;;;;;;;7.75;65.94;102336.97;7359686;19;22163;-62
2023/02/13 07:40:59;;;;;;;0.00;0.00;;;;;;;7.41;66.04;102268.88;7356574;19;20006;-61
2023/02/13 07:43:24;;;;;;;0.00;0.00;;;;;;;7.78;65.38;102334.41;7357245;19;20028;-61
2023/02/13 07:45:54;;;;;;;0.10;0.10;;;;;;;7.82;64.90;102351.81;7357985;19;20015;-62
2023/02/13 07:48:22;;;;;;;0.00;0.00;;;;;;;7.58;65.54;102299.44;7357824;19;20026;-61
2023/02/13 07:50:47;;;;;;;0.00;0.00;;;;;;;7.83;65.40;102337.97;7358964;19;20002;-62
2023/02/13 07:53:13;;;;;;;0.00;0.00;;;;;;;7.83;65.52;102337.97;7360513;19;20017;-61
2023/02/13 07:55:38;;;;;;;0.00;0.00;;;;;;;7.81;65.64;102334.47;7357428;19;20025;-62
2023/02/13 07:58:04;;;;;;;0.10;0.10;;;;;;;7.86;65.76;102357.97;7358284;19;20009;-62
2023/02/13 08:00:29;;;;;;;0.00;0.00;;;;;;;7.86;65.95;102348.44;7359765;19;20378;-62
2023/02/13 08:02:58;;;;;;;0.00;0.00;;;;;;;7.83;66.02;102344.91;7357634;19;20010;-61
2023/02/13 08:05:23;;;;;;;0.00;0.00;;;;;;;7.88;66.21;102364.03;7354790;19;20014;-61
2023/02/13 08:07:49;;;;;;;0.10;0.10;;;;;;;7.83;66.05;102358.78;7352765;19;20025;-61
2023/02/13 08:12:59;;;;;;;0.00;0.00;;;;;;;7.81;65.41;102363.09;7358522;19;20034;-61
2023/02/13 08:15:25;;;;;;;0.00;0.00;;;;;;;7.88;65.76;102377.06;7353834;19;20010;-61
2023/02/13 08:17:50;;;;;;;0.00;0.00;;;;;;;7.86;66.00;102379.63;7351209;19;20014;-62
2023/02/13 08:20:15;;;;;;;0.10;0.10;;;;;;;7.78;66.06;102366.50;7353736;19;20037;-60
2023/02/13 08:22:41;;;;;;;0.10;0.10;;;;;;;7.78;65.88;102363.03;7357563;19;20014;-62
2023/02/13 08:25:07;;;;;;;0.00;0.00;;;;;;;7.85;65.84;102375.25;7351231;19;20786;-61
2023/02/13 08:27:32;;;;;;;0.00;0.00;;;;;;;7.82;65.67;102371.75;7351684;19;20086;-61
2023/02/13 08:29:58;;;;;;;0.00;0.00;;;;;;;7.96;66.25;102386.72;7356461;19;20081;-61
2023/02/13 08:32:24;;;;;;;0.00;0.00;;;;;;;7.95;66.19;102384.94;7350078;19;20027;-61
2023/02/13 08:34:50;;;;;;;0.10;0.10;;;;;;;7.86;66.33;102364.03;7345779;19;20006;-61
2023/02/13 08:37:16;;;;;;;0.10;0.10;;;;;;;7.88;66.23;102362.31;7350792;19;20014;-62
2023/02/13 08:39:41;;;;;;;0.00;0.00;;;;;;;8.07;66.54;102385.16;7348483;19;20011;-61
2023/02/13 08:42:07;;;;;;;0.05;0.05;;;;;;;8.12;66.43;102376.53;7354158;19;20017;-62
2023/02/13 08:44:32;;;;;;;0.10;0.10;;;;;;;8.26;66.78;102372.38;7351074;19;20007;-62
2023/02/13 08:47:01;;;;;;;0.00;0.00;;;;;;;8.29;66.57;102364.63;7352099;19;20110;-62
2023/02/13 08:49:26;;;;;;;0.05;0.05;;;;;;;8.48;66.45;102371.00;7358363;19;20009;-62
2023/02/13 08:51:51;;;;;;;0.03;0.03;;;;;;;8.70;66.70;102377.31;7351173;19;20010;-62
2023/02/13 08:54:17;;;;;;;0.00;0.00;;;;;;;8.82;66.04;102372.28;7352064;19;20623;-61
2023/02/13 08:56:42;;;;;;;0.05;0.05;;;;;;;9.00;66.15;102382.88;7352423;19;20087;-62
2023/02/13 08:59:08;;;;;;;0.00;0.00;;;;;;;9.17;65.99;102384.78;7357744;19;20599;-62
2023/02/13 09:01:33;;;;;;;0.10;0.10;;;;;;;9.29;65.81;102384.91;7355939;19;20031;-62
2023/02/13 09:03:59;;;;;;;0.00;0.00;;;;;;;9.47;65.92;102387.69;7345630;19;20019;-62
2023/02/13 09:06:26;;;;;;;0.00;0.00;;;;;;;9.66;65.50;102395.66;7353510;19;20021;-62
2023/02/13 09:08:52;;;;;;;0.00;0.00;;;;;;;9.85;65.73;102405.41;7352408;19;20086;-62
2023/02/13 09:11:18;;;;;;;0.00;0.00;;;;;;;10.02;65.63;102398.53;7353125;19;20030;-62
2023/02/13 09:13:44;;;;;;;0.00;0.00;;;;;;;10.12;65.13;102389.91;7329367;19;20011;-62
2023/02/13 09:16:10;;;;;;;0.00;0.00;;;;;;;10.38;65.15;102394.44;7351732;19;20025;-62
2023/02/13 09:18:35;;;;;;;0.00;0.00;;;;;;;10.53;64.47;102394.53;7345941;19;20014;-62
2023/02/13 09:21:04;;;;;;;0.00;0.00;;;;;;;10.71;64.12;102387.66;7351175;19;20006;-62
2023/02/13 09:23:35;;;;;;;0.08;0.08;;;;;;;10.83;64.14;102392.91;7356613;19;20021;-62
2023/02/13 09:26:02;;;;;;;0.00;0.00;;;;;;;10.89;63.95;102378.09;7355751;19;20018;-62
2023/02/13 09:28:29;;;;;;;0.00;0.00;;;;;;;11.04;63.76;102382.50;7362807;19;20010;-62
2023/02/13 09:30:55;;;;;;;0.08;0.08;;;;;;;11.15;63.42;102385.13;7358020;19;20105;-62
2023/02/13 09:33:20;;;;;;;0.08;0.08;;;;;;;11.28;62.89;102375.56;7361489;19;20098;-62
2023/02/13 09:35:45;;;;;;;0.00;0.00;;;;;;;11.41;62.89;102372.13;7359236;19;20082;-62
2023/02/13 09:38:11;;;;;;;0.05;0.05;;;;;;;11.58;62.96;102378.22;7367101;19;20677;-62
2023/02/13 09:40:49;;;;;;;0.10;0.10;;;;;;;11.81;62.75;102379.94;7362873;19;20007;-61
2023/02/13 09:43:34;;;;;;;0.08;0.08;;;;;;;11.98;63.08;102380.84;7360644;19;20024;-62
2023/02/13 09:46:11;;;;;;;0.00;0.00;;;;;;;12.04;62.72;102359.88;7361744;19;20014;-62
2023/02/13 09:48:41;;;;;;;0.00;0.00;;;;;;;12.29;61.61;102380.75;7363279;19;20010;-62
2023/02/13 09:51:12;;;;;;;0.00;0.00;;;;;;;12.42;61.08;102377.25;7353713;19;20009;-62
2023/02/13 09:53:42;;;;;;;0.00;0.00;;;;;;;12.51;60.56;102371.94;7366292;19;20010;-62
2023/02/13 09:56:08;;;;;;;0.00;0.00;;;;;;;12.68;60.60;102380.63;7364582;19;20010;-62
2023/02/13 09:58:34;;;;;;;0.10;0.10;;;;;;;12.83;60.06;102384.06;7363393;19;20101;-62
2023/02/13 10:01:02;;;;;;;0.00;0.00;;;;;;;12.90;59.90;102354.28;7361854;19;20074;-62
2023/02/13 10:03:32;;;;;;;0.00;0.00;;;;;;;13.20;59.95;102380.31;7360136;19;20007;-62
2023/02/13 10:06:03;;;;;;;0.08;0.08;;;;;;;13.41;59.50;102387.19;7363299;19;20039;-62
2023/02/13 10:08:44;;;;;;;0.00;0.00;;;;;;;13.52;57.98;102379.22;7365352;19;20462;-62
2023/02/13 10:11:34;;;;;;;0.10;0.10;;;;;;;13.80;59.71;102386.88;7360474;19;20003;-62
2023/02/13 10:14:17;;;;;;;0.00;0.00;;;;;;;13.88;59.98;102380.66;7363948;19;20763;-62
2023/02/13 10:16:59;;;;;;;0.00;0.00;;;;;;;14.05;56.83;102383.13;7363294;19;20002;-62
2023/02/13 10:19:54;;;;;;;0.00;0.00;;;;;;;14.31;59.36;102379.38;7363454;19;20104;-61
2023/02/13 10:22:29;;;;;;;0.00;0.00;;;;;;;14.39;56.40;102385.38;7261957;19;2004554;-62
2023/02/13 10:25:05;;;;;;;0.00;0.00;;;;;;;14.46;55.95;102384.44;7360715;19;20035;-62
2023/02/13 10:27:38;;;;;;;0.00;0.00;;;;;;;14.52;56.06;102348.44;7363895;19;20460;-62
2023/02/13 10:30:12;;;;;;;0.10;0.10;;;;;;;14.77;56.51;102370.03;7361627;19;20010;-62
2023/02/13 10:33:09;;;;;;;0.10;0.10;;;;;;;14.90;56.22;102378.66;7364107;19;20017;-62
2023/02/13 10:35:36;;;;;;;0.10;0.10;;;;;;;14.98;55.09;102386.41;7262387;19;2004712;-62
2023/02/13 10:38:14;;;;;;;0.00;0.00;;;;;;;15.22;56.16;102378.16;7359846;19;20646;-62
2023/02/13 10:40:50;;;;;;;0.10;0.10;;;;;;;15.36;55.37;102375.34;7356409;19;20521;-62
2023/02/13 10:43:20;;;;;;;0.00;0.00;;;;;;;15.54;54.05;102380.28;7343100;19;20010;-62
2023/02/13 10:46:07;;;;;;;0.10;0.10;;;;;;;15.75;55.64;102388.75;7363554;19;20832;-62
2023/02/13 10:48:40;;;;;;;0.10;0.10;;;;;;;15.81;54.52;102367.56;7358395;19;20014;-62
2023/02/13 10:51:15;;;;;;;0.00;0.00;;;;;;;16.06;53.78;102379.38;7362851;19;20861;-62
2023/02/13 10:53:54;;;;;;;0.10;0.10;;;;;;;16.25;53.10;102376.41;7364275;19;20006;-62
2023/02/13 10:56:39;;;;;;;0.00;0.00;;;;;;;16.55;53.75;102383.69;7363800;19;20019;-62
2023/02/13 10:59:35;;;;;;;0.10;0.10;;;;;;;16.78;53.54;102375.34;7361023;19;20010;-62
2023/02/13 11:02:20;;;;;;;0.10;0.10;;;;;;;17.11;54.24;102380.75;7261425;19;2004523;-62
2023/02/13 11:04:46;;;;;;;0.00;0.00;;;;;;;17.14;50.32;102359.59;7362666;19;20009;-62
2023/02/13 11:07:19;;;;;;;0.00;0.00;;;;;;;17.61;52.30;102378.66;7360783;19;20530;-62
2023/02/13 11:09:48;;;;;;;0.00;0.00;;;;;;;17.77;49.23;102369.47;7358528;19;20339;-62
2023/02/13 11:12:31;;;;;;;0.10;0.10;;;;;;;17.86;51.62;102342.81;7364325;19;20015;-62
2023/02/13 11:15:18;;;;;;;0.10;0.10;;;;;;;18.19;50.45;102361.28;7363728;19;20774;-62
2023/02/13 11:17:45;;;;;;;;;;;;;;;18.53;54.73;102357.69;7364849;19;20461;-62
2023/02/13 11:20:46;;;;;;;0.10;0.10;;;;;;;18.74;51.52;102354.41;7360518;19;20009;-62
2023/02/13 11:23:27;;;;;;;0.08;0.08;;;;;;;18.83;46.80;102348.84;7259464;19;2004521;-62
2023/02/13 11:26:00;;;;;;;0.00;0.00;;;;;;;18.91;47.22;102346.84;7363974;19;20002;-62
2023/02/13 11:28:28;;;;;;;0.10;0.10;;;;;;;18.85;45.57;102352.28;7364875;19;20026;-62
2023/02/13 11:31:10;;;;;;;0.10;0.10;;;;;;;18.91;48.22;102357.44;7358016;19;20062;-62
2023/02/13 11:33:35;;;;;;;0.00;0.00;;;;;;;18.79;45.22;102344.56;7364163;19;20438;-62
2023/02/13 11:36:12;;;;;;;0.10;0.10;;;;;;;18.88;47.39;102360.16;7361543;19;21045;-62
2023/02/13 11:38:37;;;;;;;0.00;0.00;;;;;;;18.83;44.70;102348.84;7359682;19;20002;-62
2023/02/13 11:41:10;;;;;;;0.00;0.00;;;;;;;18.91;46.26;102344.19;7362764;19;20429;-62
2023/02/13 11:43:47;;;;;;;0.10;0.10;;;;;;;19.02;46.86;102349.16;7358541;19;20706;-62
2023/02/13 11:46:18;;;;;;;;;;;;;;;19.26;51.01;102347.50;7366710;19;20010;-62
2023/02/13 11:48:56;;;;;;;0.08;0.08;;;;;;;19.38;48.81;102331.19;7370212;19;19919;-62
2023/02/13 11:51:33;;;;;;;;;;;;;;;19.73;50.73;102345.03;7368164;19;20010;-62
2023/02/13 11:54:00;;;;;;;0.10;0.10;;;;;;;19.88;44.70;102339.22;7365620;19;20481;-62
2023/02/13 11:56:25;;;;;;;0.10;0.10;;;;;;;20.14;43.64;102332.97;7361585;19;20089;-62
2023/02/13 11:59:00;;;;;;;0.00;0.00;;;;;;;20.47;45.83;102333.50;7360690;19;20014;-62
2023/02/13 12:01:27;;;;;;;0.10;0.10;;;;;;;20.56;42.37;102328.78;7361779;19;20010;-62
2023/02/13 12:04:16;;;;;;;0.10;0.10;;;;;;;20.75;46.30;102324.47;7349225;19;22111;-62
2023/02/13 12:07:00;;;;;;;0.10;0.10;;;;;;;20.78;46.00;102320.81;7258344;19;2004599;-62
2023/02/13 12:09:27;;;;;;;0.10;0.10;;;;;;;20.63;41.81;102309.91;7357053;19;20018;-62
2023/02/13 12:11:55;;;;;;;0.10;0.10;;;;;;;20.68;40.69;102307.94;7358754;19;20031;-62
2023/02/13 12:14:24;;;;;;;0.03;0.03;;;;;;;20.57;40.60;102309.25;7362488;19;20007;-62
2023/02/13 12:16:57;;;;;;;0.10;0.10;;;;;;;20.42;41.37;102300.94;7360106;19;20012;-62
2023/02/13 12:19:43;;;;;;;0.10;0.10;;;;;;;20.20;43.01;102300.03;7360967;19;20020;-62
2023/02/13 12:22:31;;;;;;;0.10;0.10;;;;;;;19.88;42.62;102288.84;7359341;19;20018;-62
2023/02/13 12:25:44;;;;;;;0.10;0.10;;;;;;;19.59;42.79;102283.66;7357812;19;20841;-62